Time;durP1;ratioP1;P1;durP2;ratioP2;P2;SDS_P1;SDS_P2;PMS_P1;PMS_P2;Temp;Humidity;BMP_temperature;BMP_pressure;BME280_temperature;BME280_humidity;BME280_pressure;Samples;Min_cycle;Max_cycle;Signal;HPM_P1;HPM_P2
2022/12/01 00:02:03;;;;;;;1.88;0.80;;;;;;;21.63;43.70;95105.53;4911918;29;20039;-61
2022/12/01 00:04:29;;;;;;;2.10;0.90;;;;;;;21.66;43.79;95082.81;4927923;29;20515;-66
2022/12/01 00:06:54;;;;;;;1.55;0.70;;;;;;;21.64;44.04;95088.75;4912211;29;20570;-62
2022/12/01 00:12:04;;;;;;;2.08;0.93;;;;;;;21.55;43.72;95066.50;4919970;29;20070;-61
2022/12/01 00:14:29;;;;;;;2.08;0.80;;;;;;;21.60;43.76;95092.94;4916148;29;20531;-61
2022/12/01 00:16:55;;;;;;;1.75;0.80;;;;;;;21.14;43.59;95016.63;4906034;29;20421;-63
2022/12/01 00:19:24;;;;;;;1.67;0.80;;;;;;;21.61;43.71;95087.03;4905683;29;20067;-61
2022/12/01 00:21:49;;;;;;;0.85;0.50;;;;;;;21.52;43.74;95075.66;4898504;29;20146;-61
2022/12/01 00:24:15;;;;;;;1.63;0.80;;;;;;;21.52;43.75;95078.38;4892527;29;20811;-64
2022/12/01 00:26:40;;;;;;;1.30;0.65;;;;;;;20.78;43.66;94967.28;4915791;28;20535;-64
2022/12/01 00:29:06;;;;;;;1.83;0.60;;;;;;;21.54;43.28;95086.78;4899898;29;20153;-62
2022/12/01 00:31:31;;;;;;;1.52;0.68;;;;;;;21.58;43.86;95092.69;4922238;29;20579;-62
2022/12/01 00:33:57;;;;;;;1.33;0.60;;;;;;;21.56;43.90;95089.72;4900816;29;20502;-62
2022/12/01 00:36:22;;;;;;;1.17;0.50;;;;;;;21.52;43.83;95110.97;4906438;29;21207;-62
2022/12/01 00:38:51;;;;;;;1.60;0.70;;;;;;;21.55;43.78;95093.69;4886613;29;20059;-60
2022/12/01 00:41:17;;;;;;;1.75;0.85;;;;;;;21.54;43.68;95103.09;4886749;29;20055;-61
2022/12/01 00:43:42;;;;;;;1.40;0.70;;;;;;;21.55;43.74;95093.69;4908216;29;20091;-61
2022/12/01 00:46:08;;;;;;;1.05;0.52;;;;;;;21.52;43.76;95083.78;4932218;29;20122;-61
2022/12/01 00:48:33;;;;;;;0.93;0.50;;;;;;;21.54;43.80;95097.66;4922675;29;20714;-63
2022/12/01 00:50:59;;;;;;;1.45;0.55;;;;;;;21.51;43.75;95082.34;4920648;29;20046;-60
2022/12/01 00:53:24;;;;;;;1.25;0.60;;;;;;;20.94;43.95;95002.56;4899741;29;20179;-62
2022/12/01 00:55:50;;;;;;;1.70;0.70;;;;;;;21.45;43.89;95078.84;4931413;29;20323;-62
2022/12/01 00:58:15;;;;;;;1.15;0.60;;;;;;;21.47;43.92;95074.41;4909757;29;20166;-62
2022/12/01 01:00:41;;;;;;;1.50;0.60;;;;;;;21.49;43.78;95079.34;4929280;29;20078;-61
2022/12/01 01:03:07;;;;;;;1.17;0.68;;;;;;;21.46;43.87;95074.91;4908226;29;20435;-60
2022/12/01 01:05:36;;;;;;;1.83;0.60;;;;;;;21.47;43.75;95081.84;4928356;29;20163;-61
2022/12/01 01:08:08;;;;;;;0.95;0.50;;;;;;;21.48;43.68;95083.31;4883575;29;20094;-61
2022/12/01 01:10:37;;;;;;;1.88;0.60;;;;;;;20.56;43.66;94940.09;4927170;29;20051;-61
2022/12/01 01:13:03;;;;;;;1.45;0.47;;;;;;;21.45;43.95;95076.91;4918054;28;20082;-60
2022/12/01 01:15:28;;;;;;;1.70;0.63;;;;;;;21.40;43.98;95066.00;4905799;28;20468;-61
2022/12/01 01:17:54;;;;;;;1.00;0.50;;;;;;;21.45;43.77;95073.41;4934018;28;20043;-60
2022/12/01 01:20:19;;;;;;;1.05;0.57;;;;;;;21.43;43.89;95075.88;4928720;29;20401;-61
2022/12/01 01:22:45;;;;;;;1.05;0.50;;;;;;;20.72;43.76;94952.97;4912023;28;20032;-64
2022/12/01 01:25:10;;;;;;;1.10;0.52;;;;;;;21.44;43.76;95066.50;4942283;28;20055;-62
2022/12/01 01:27:36;;;;;;;0.82;0.52;;;;;;;21.36;43.91;95054.66;4926592;28;20094;-63
2022/12/01 01:30:02;;;;;;;1.25;0.50;;;;;;;20.68;43.57;94979.59;4917389;28;20039;-61
2022/12/01 01:32:27;;;;;;;1.27;0.60;;;;;;;21.42;43.75;95068.22;4927114;29;20039;-60
2022/12/01 01:34:53;;;;;;;0.93;0.47;;;;;;;21.42;43.81;95058.09;4929016;28;20530;-63
2022/12/01 01:37:18;;;;;;;0.90;0.40;;;;;;;21.41;43.87;95061.31;4916302;29;20086;-62
2022/12/01 01:39:44;;;;;;;1.00;0.50;;;;;;;21.38;43.82;95057.59;4898478;28;20047;-61
2022/12/01 01:42:13;;;;;;;1.15;0.60;;;;;;;21.39;43.96;95047.47;4919912;28;20149;-60
2022/12/01 01:44:55;;;;;;;0.70;0.50;;;;;;;21.39;43.77;95053.66;4916767;29;20043;-60
2022/12/01 01:47:30;;;;;;;1.33;0.50;;;;;;;21.32;43.68;95042.56;4945841;28;20121;-62
2022/12/01 01:49:57;;;;;;;1.35;0.50;;;;;;;21.37;43.87;95050.69;4917094;28;20027;-61
2022/12/01 01:52:23;;;;;;;0.93;0.40;;;;;;;21.38;43.89;95046.75;4914547;29;20752;-60
2022/12/01 01:54:49;;;;;;;1.15;0.57;;;;;;;21.38;43.76;95068.47;4903348;29;20066;-61
2022/12/01 01:57:18;;;;;;;1.10;0.60;;;;;;;21.36;43.85;95043.78;4946207;28;20035;-64
2022/12/01 01:59:46;;;;;;;0.93;0.50;;;;;;;21.36;43.90;95049.22;4949312;28;20570;-61
2022/12/01 02:02:12;;;;;;;1.15;0.40;;;;;;;21.35;43.30;95041.56;4929723;28;20035;-62
2022/12/01 02:04:40;;;;;;;0.70;0.38;;;;;;;21.31;43.82;95030.94;4931320;29;20479;-63
2022/12/01 02:07:07;;;;;;;0.80;0.40;;;;;;;21.27;43.86;95022.31;4920280;28;20051;-63
2022/12/01 02:09:32;;;;;;;0.63;0.30;;;;;;;21.28;43.79;95059.06;4934958;29;20051;-60
2022/12/01 02:12:16;;;;;;;1.05;0.38;;;;;;;21.34;43.79;95040.81;4914800;29;20054;-61
2022/12/01 02:15:15;;;;;;;1.20;0.50;;;;;;;21.33;43.83;95033.16;4920877;29;20063;-61
2022/12/01 02:17:50;;;;;;;1.00;0.40;;;;;;;21.33;43.86;95033.16;4945241;28;20047;-61
2022/12/01 02:20:25;;;;;;;1.00;0.50;;;;;;;21.31;44.09;95030.94;4914619;29;20047;-61
2022/12/01 02:23:02;;;;;;;0.93;0.50;;;;;;;21.31;43.84;95036.38;4930647;29;20058;-64
2022/12/01 02:25:46;;;;;;;0.52;0.30;;;;;;;21.29;43.90;95027.97;4925697;29;20070;-63
2022/12/01 02:28:21;;;;;;;0.88;0.50;;;;;;;21.30;43.75;95029.47;4929856;29;20044;-61
2022/12/01 02:30:49;;;;;;;0.52;0.30;;;;;;;21.30;43.67;95034.91;4929125;28;20142;-62
2022/12/01 02:33:30;;;;;;;1.13;0.40;;;;;;;21.30;43.73;95023.28;4928199;29;20716;-60
2022/12/01 02:36:07;;;;;;;0.73;0.30;;;;;;;19.61;43.65;94768.19;4937530;28;20039;-61
2022/12/01 02:38:40;;;;;;;1.20;0.40;;;;;;;21.28;43.87;95026.50;4941976;29;20114;-62
2022/12/01 02:41:40;;;;;;;0.82;0.40;;;;;;;21.29;43.85;95019.81;4920044;29;20035;-61
2022/12/01 02:44:18;;;;;;;0.90;0.40;;;;;;;21.29;43.79;95027.97;4914597;29;20407;-62
2022/12/01 02:47:14;;;;;;;1.00;0.50;;;;;;;21.27;43.85;95025.03;4926604;28;20039;-63
2022/12/01 02:49:41;;;;;;;1.00;0.40;;;;;;;21.24;43.75;95036.88;4892769;29;20056;-61
2022/12/01 02:52:07;;;;;;;0.82;0.30;;;;;;;21.27;43.83;95025.03;4922266;29;20119;-64
2022/12/01 02:54:33;;;;;;;0.93;0.50;;;;;;;21.18;43.84;95032.66;4920594;29;20069;-61
2022/12/01 02:56:58;;;;;;;1.05;0.40;;;;;;;21.25;43.75;95032.91;4897452;29;20099;-64
2022/12/01 02:59:24;;;;;;;1.23;0.38;;;;;;;21.25;44.05;95027.47;4906880;29;20028;-61
2022/12/01 03:02:05;;;;;;;0.60;0.30;;;;;;;21.25;43.74;95037.59;4933565;28;20126;-62
2022/12/01 03:04:45;;;;;;;0.68;0.30;;;;;;;21.25;43.53;95027.47;4911737;29;20036;-62
2022/12/01 03:07:31;;;;;;;0.98;0.40;;;;;;;21.25;43.76;95027.47;4911896;29;20055;-63
2022/12/01 03:10:03;;;;;;;0.88;0.30;;;;;;;21.24;43.70;95031.44;4918247;29;20036;-60
2022/12/01 03:13:05;;;;;;;0.93;0.30;;;;;;;21.24;43.93;95026.00;4940125;28;20047;-60
2022/12/01 03:15:46;;;;;;;0.80;0.40;;;;;;;21.23;43.97;95029.97;4916288;28;20118;-61
2022/12/01 03:18:36;;;;;;;0.93;0.30;;;;;;;21.21;43.75;95026.25;4919914;29;20050;-61
2022/12/01 03:21:07;;;;;;;0.82;0.30;;;;;;;21.21;43.91;95021.56;4911699;28;20153;-60
2022/12/01 03:23:35;;;;;;;0.75;0.30;;;;;;;21.22;43.80;95006.75;4915564;29;20186;-62
2022/12/01 03:26:01;;;;;;;0.63;0.20;;;;;;;21.22;43.86;95017.59;4939640;28;20035;-60
2022/12/01 03:28:29;;;;;;;0.85;0.32;;;;;;;21.20;43.88;95014.66;4910884;29;20070;-61
2022/12/01 03:30:58;;;;;;;0.82;0.30;;;;;;;21.12;43.82;95019.09;4924723;28;20047;-61
2022/12/01 03:33:25;;;;;;;1.08;0.30;;;;;;;21.17;43.73;95012.91;4912428;28;20050;-62
2022/12/01 03:35:54;;;;;;;0.40;0.30;;;;;;;20.56;43.71;94924.56;4916449;29;20110;-62
2022/12/01 03:38:23;;;;;;;0.65;0.30;;;;;;;21.19;44.04;95034.88;4943850;28;20031;-62
2022/12/01 03:40:50;;;;;;;0.70;0.30;;;;;;;21.17;43.88;95010.22;4939634;29;20114;-60
2022/12/01 03:43:19;;;;;;;0.70;0.30;;;;;;;21.16;43.91;95008.00;4940707;28;20054;-62
2022/12/01 03:46:09;;;;;;;1.13;0.50;;;;;;;21.17;43.84;95004.78;4913348;29;20094;-61
2022/12/01 03:48:34;;;;;;;0.70;0.30;;;;;;;21.18;43.88;95016.38;4915579;28;20059;-61
2022/12/01 03:51:06;;;;;;;0.60;0.30;;;;;;;21.16;43.88;95014.16;4931088;28;20493;-63
2022/12/01 03:53:47;;;;;;;0.55;0.20;;;;;;;20.97;43.88;94983.31;4951441;28;20051;-62
2022/12/01 03:56:13;;;;;;;0.63;0.20;;;;;;;21.17;43.73;95015.63;4912590;28;20035;-61
2022/12/01 03:58:42;;;;;;;0.70;0.40;;;;;;;21.17;43.74;95015.63;4927623;28;20087;-61
2022/12/01 04:01:07;;;;;;;0.70;0.30;;;;;;;21.17;43.90;95014.91;4895089;29;20114;-63
2022/12/01 04:03:33;;;;;;;0.50;0.30;;;;;;;21.08;43.69;94996.88;4922411;28;20051;-60
2022/12/01 04:05:58;;;;;;;0.40;0.30;;;;;;;21.14;43.59;95000.34;4931561;28;20074;-63
2022/12/01 04:08:25;;;;;;;0.85;0.30;;;;;;;19.85;43.69;94822.66;4893280;29;20028;-60
2022/12/01 04:10:51;;;;;;;0.70;0.25;;;;;;;21.10;43.76;95007.97;4945924;28;20030;-62
2022/12/01 04:13:22;;;;;;;0.32;0.20;;;;;;;21.13;43.72;95009.69;4908162;29;20052;-63
2022/12/01 04:15:51;;;;;;;0.80;0.40;;;;;;;21.13;43.85;95015.13;4930378;28;20131;-61
2022/12/01 04:18:17;;;;;;;0.55;0.20;;;;;;;21.12;43.63;95029.97;4900340;29;20044;-61
2022/12/01 04:20:45;;;;;;;0.63;0.20;;;;;;;21.11;43.80;95023.03;4888386;29;20046;-62
2022/12/01 04:23:58;;;;;;;0.57;0.20;;;;;;;20.52;43.86;94939.59;4893236;29;20071;-63
2022/12/01 04:26:02;;;;;;;0.70;0.28;;;;;;;21.03;44.00;95021.31;4915605;29;20039;-62
2022/12/01 04:28:28;;;;;;;0.68;0.20;;;;;;;21.11;43.73;95033.91;4879305;29;20172;-60
2022/12/01 04:30:53;;;;;;;0.60;0.20;;;;;;;21.02;43.74;95026.00;4910396;29;20043;-64
2022/12/01 04:33:19;;;;;;;0.50;0.25;;;;;;;21.10;43.72;95029.69;4883699;29;20134;-61
2022/12/01 04:35:44;;;;;;;0.88;0.30;;;;;;;21.00;43.81;95025.75;4906445;28;20086;-63
2022/12/01 04:38:10;;;;;;;0.50;0.20;;;;;;;21.10;43.68;95037.84;4883322;28;20333;-60
2022/12/01 04:40:37;;;;;;;0.45;0.28;;;;;;;21.08;43.84;95040.31;4914531;29;20040;-62
2022/12/01 04:43:02;;;;;;;0.60;0.20;;;;;;;21.08;43.66;95040.31;4912062;29;20062;-61
2022/12/01 04:45:28;;;;;;;0.50;0.20;;;;;;;21.07;43.94;95044.25;4925538;29;20044;-63
2022/12/01 04:47:54;;;;;;;0.90;0.20;;;;;;;21.08;43.76;95045.75;4881937;29;20036;-63
2022/12/01 04:50:19;;;;;;;0.43;0.20;;;;;;;21.08;43.85;95040.31;4898417;29;20038;-61
2022/12/01 04:52:45;;;;;;;0.40;0.20;;;;;;;21.08;44.06;95040.31;4894868;28;20043;-62
2022/12/01 04:55:11;;;;;;;0.77;0.30;;;;;;;21.00;43.93;95028.47;4905770;29;20052;-63
2022/12/01 04:57:38;;;;;;;0.50;0.28;;;;;;;21.03;43.77;95026.72;4897974;29;20083;-61
2022/12/01 05:00:11;;;;;;;1.75;0.20;;;;;;;21.10;43.97;95026.97;4892469;29;20046;-63
2022/12/01 05:02:37;;;;;;;0.85;0.30;;;;;;;21.11;44.03;95027.75;4869656;29;20047;-59
2022/12/01 05:05:05;;;;;;;0.77;0.20;;;;;;;21.29;43.84;95049.69;4915806;29;20078;-61
2022/12/01 05:07:31;;;;;;;2.30;0.17;;;;;;;21.36;43.49;95027.50;4891001;29;20079;-61
2022/12/01 05:09:56;;;;;;;1.90;0.30;;;;;;;21.68;43.39;95048.44;4892435;29;20505;-61
2022/12/01 05:12:22;;;;;;;0.70;0.30;;;;;;;21.72;42.50;95042.75;4892085;29;20039;-65
2022/12/01 05:14:47;;;;;;;0.63;0.25;;;;;;;21.71;42.63;95041.28;4927624;28;20122;-64
2022/12/01 05:17:13;;;;;;;0.50;0.20;;;;;;;21.76;42.58;95038.53;4919781;29;20043;-60
2022/12/01 05:22:22;;;;;;;0.55;0.20;;;;;;;21.99;42.11;95051.59;4930047;28;20519;-61
2022/12/01 05:24:48;;;;;;;0.60;0.20;;;;;;;20.46;41.71;94805.94;4937380;28;20040;-61
2022/12/01 05:27:13;;;;;;;1.00;0.10;;;;;;;22.05;41.70;95055.03;4917838;28;20758;-60
2022/12/01 05:29:39;;;;;;;0.50;0.20;;;;;;;22.18;41.88;95049.06;4910843;28;20055;-63
2022/12/01 05:32:05;;;;;;;0.47;0.20;;;;;;;21.48;41.40;94942.06;4940393;28;20550;-62
2022/12/01 05:34:30;;;;;;;0.68;0.20;;;;;;;22.29;41.31;95047.06;4921444;29;20826;-63
2022/12/01 05:36:56;;;;;;;0.45;0.20;;;;;;;22.36;41.06;95052.00;4903365;29;20055;-61
2022/12/01 05:39:21;;;;;;;1.25;0.10;;;;;;;22.36;41.50;95043.84;4913630;29;20071;-60
2022/12/01 05:41:47;;;;;;;0.73;0.25;;;;;;;22.45;40.86;95038.09;4954196;28;20095;-61
2022/12/01 05:44:12;;;;;;;0.85;0.30;;;;;;;22.65;40.74;95062.25;4922218;28;20445;-63
2022/12/01 05:46:38;;;;;;;1.13;0.20;;;;;;;22.71;40.46;95054.78;4921619;28;20457;-61
2022/12/01 05:49:04;;;;;;;1.30;0.50;;;;;;;22.81;40.59;95034.16;4931092;28;20272;-63
2022/12/01 05:51:29;;;;;;;0.55;0.20;;;;;;;22.47;40.48;94998.25;4928714;29;20066;-62
2022/12/01 05:53:57;;;;;;;1.10;0.38;;;;;;;22.73;40.93;95057.75;4908018;28;20043;-62
2022/12/01 05:56:22;;;;;;;0.65;0.22;;;;;;;22.10;40.52;94959.09;4933850;28;20501;-63
2022/12/01 05:58:48;;;;;;;1.33;0.20;;;;;;;22.86;40.15;95044.31;4941397;28;20087;-63
2022/12/01 06:01:14;;;;;;;0.52;0.20;;;;;;;23.07;39.85;95071.41;4930950;28;21729;-63
2022/12/01 06:03:40;;;;;;;0.50;0.20;;;;;;;23.30;39.62;95056.38;4917884;29;20074;-61
2022/12/01 06:06:05;;;;;;;0.80;0.20;;;;;;;23.32;39.35;95053.91;4896926;29;20086;-63
2022/12/01 06:08:30;;;;;;;1.55;0.30;;;;;;;23.31;39.96;95043.50;4917869;28;20066;-62
2022/12/01 06:10:56;;;;;;;0.57;0.20;;;;;;;22.79;39.27;94952.28;4939555;28;20606;-59
2022/12/01 06:13:21;;;;;;;1.95;0.40;;;;;;;22.54;39.49;94937.84;4940923;28;20507;-61
2022/12/01 06:16:01;;;;;;;0.65;0.28;;;;;;;23.28;39.93;95052.69;4910374;28;20047;-61
2022/12/01 06:18:29;;;;;;;0.55;0.30;;;;;;;23.27;39.89;95046.47;4933033;28;20047;-61
2022/12/01 06:20:54;;;;;;;0.60;0.20;;;;;;;23.43;39.87;95049.06;4920391;28;20047;-61
2022/12/01 06:23:20;;;;;;;0.30;0.20;;;;;;;23.51;39.91;95060.16;4912758;28;20135;-63
2022/12/01 06:25:46;;;;;;;0.40;0.20;;;;;;;23.51;39.64;95054.72;4912825;28;20533;-61
2022/12/01 06:28:11;;;;;;;0.57;0.30;;;;;;;23.67;39.39;95053.88;4923724;28;20059;-62
2022/12/01 06:30:37;;;;;;;0.35;0.20;;;;;;;23.65;39.31;95054.38;4917430;28;20043;-63
2022/12/01 06:33:02;;;;;;;0.30;0.20;;;;;;;23.58;39.66;95048.72;4928629;28;20047;-62
2022/12/01 06:35:28;;;;;;;0.35;0.20;;;;;;;23.57;39.02;95031.63;4937405;28;20487;-62
2022/12/01 06:37:53;;;;;;;1.58;0.40;;;;;;;23.81;39.70;95044.56;4929299;28;20122;-60
2022/12/01 06:40:19;;;;;;;2.30;0.30;;;;;;;23.90;38.95;95037.50;4922599;28;20078;-62
2022/12/01 06:42:44;;;;;;;2.83;0.20;;;;;;;23.93;38.82;95047.41;4905974;29;20101;-62
2022/12/01 06:45:10;;;;;;;0.70;0.30;;;;;;;23.87;38.92;95043.25;4918705;28;20059;-64
2022/12/01 06:47:36;;;;;;;1.42;0.38;;;;;;;23.72;39.05;95053.81;4929978;28;20535;-60
2022/12/01 06:50:02;;;;;;;2.70;0.30;;;;;;;23.84;39.08;95048.97;4937616;28;20516;-61
2022/12/01 06:52:27;;;;;;;0.73;0.20;;;;;;;23.83;39.31;95050.25;4934025;28;20119;-60
2022/12/01 06:54:53;;;;;;;1.85;0.30;;;;;;;23.95;38.94;95044.88;4914226;28;20100;-63
2022/12/01 06:57:18;;;;;;;0.55;0.20;;;;;;;24.01;38.45;95053.75;4930774;28;20535;-65
2022/12/01 06:59:44;;;;;;;1.02;0.30;;;;;;;23.92;38.76;95051.38;4910009;28;20040;-64
2022/12/01 07:02:10;;;;;;;0.60;0.30;;;;;;;23.70;39.32;95047.41;4928799;28;20036;-61
2022/12/01 07:04:35;;;;;;;1.10;0.22;;;;;;;24.24;38.41;95065.91;4916871;28;20146;-63
2022/12/01 07:07:01;;;;;;;2.85;0.20;;;;;;;24.31;38.17;95065.34;4914247;28;20040;-63
2022/12/01 07:09:26;;;;;;;1.05;0.30;;;;;;;24.53;37.96;95059.66;4910152;28;20051;-64
2022/12/01 07:11:51;;;;;;;0.60;0.20;;;;;;;24.68;37.46;95046.25;4914702;28;20043;-61
2022/12/01 07:14:21;;;;;;;0.90;0.28;;;;;;;24.47;38.00;95072.63;4924074;28;20117;-64
2022/12/01 07:16:46;;;;;;;1.58;0.30;;;;;;;24.31;38.24;95073.53;4913114;29;20074;-62
2022/12/01 07:19:12;;;;;;;0.70;0.20;;;;;;;24.56;37.83;95064.06;4901418;28;20142;-63
2022/12/01 07:21:37;;;;;;;0.60;0.20;;;;;;;24.83;37.16;95061.69;4890330;28;20273;-61
2022/12/01 07:24:03;;;;;;;1.00;0.20;;;;;;;24.77;37.47;95052.13;4893856;28;20055;-63
2022/12/01 07:26:29;;;;;;;1.50;0.30;;;;;;;24.47;37.81;95039.88;4918568;28;20058;-61
2022/12/01 07:28:54;;;;;;;0.40;0.30;;;;;;;24.53;37.68;95059.66;4892383;28;20114;-61
2022/12/01 07:31:20;;;;;;;0.70;0.20;;;;;;;24.09;37.66;94978.25;4913759;28;20142;-62
2022/12/01 07:33:45;;;;;;;1.33;0.30;;;;;;;24.83;37.13;95039.84;4937110;28;20087;-64
2022/12/01 07:36:11;;;;;;;0.60;0.30;;;;;;;24.76;37.13;95033.50;4910654;28;20039;-63
2022/12/01 07:38:37;;;;;;;1.25;0.32;;;;;;;23.97;36.80;94892.34;4893935;28;20056;-64
2022/12/01 07:41:04;;;;;;;0.60;0.20;;;;;;;25.13;36.91;95084.16;4912828;28;20019;-61
2022/12/01 07:43:30;;;;;;;0.60;0.20;;;;;;;25.17;36.63;95046.34;4917328;28;20074;-65
2022/12/01 07:45:56;;;;;;;0.77;0.28;;;;;;;25.27;36.61;95060.34;4915986;28;20558;-61
2022/12/01 07:48:21;;;;;;;0.50;0.20;;;;;;;25.28;36.64;95051.63;4917062;28;20043;-63
2022/12/01 07:50:47;;;;;;;0.60;0.20;;;;;;;25.28;36.33;95035.22;4907044;28;20658;-63
2022/12/01 07:53:12;;;;;;;0.98;0.20;;;;;;;25.28;36.33;95035.22;4905819;28;20039;-62
2022/12/01 07:55:38;;;;;;;0.57;0.32;;;;;;;25.39;36.44;95062.38;4902544;28;20075;-64
2022/12/01 07:58:03;;;;;;;1.02;0.20;;;;;;;25.29;36.43;95055.84;4898865;28;20137;-65
2022/12/01 08:00:29;;;;;;;0.80;0.20;;;;;;;25.29;36.66;95058.59;4896132;28;20381;-64
2022/12/01 08:02:54;;;;;;;0.60;0.20;;;;;;;25.41;36.35;95054.38;4914562;28;20575;-62
2022/12/01 08:05:20;;;;;;;0.70;0.30;;;;;;;25.51;36.20;95069.16;4918621;28;20382;-61
2022/12/01 08:07:45;;;;;;;0.65;0.30;;;;;;;25.60;35.99;95068.75;4914575;28;20535;-63
2022/12/01 08:10:11;;;;;;;0.50;0.20;;;;;;;25.10;35.77;94981.34;4929548;28;20539;-63
2022/12/01 08:12:36;;;;;;;0.50;0.10;;;;;;;25.62;35.57;95058.03;4912148;28;20048;-64
2022/12/01 08:15:02;;;;;;;0.85;0.32;;;;;;;25.62;35.93;95077.16;4910396;28;20501;-61
2022/12/01 08:17:28;;;;;;;0.80;0.20;;;;;;;25.69;35.79;95057.44;4912923;28;20055;-62
2022/12/01 08:19:53;;;;;;;0.57;0.30;;;;;;;25.64;35.66;95061.00;4925029;28;20469;-64
2022/12/01 08:22:19;;;;;;;0.55;0.20;;;;;;;25.50;35.91;95051.25;4918677;28;20437;-61
2022/12/01 08:24:44;;;;;;;0.70;0.30;;;;;;;25.46;35.82;95061.78;4903462;28;20146;-61
2022/12/01 08:27:10;;;;;;;0.80;0.30;;;;;;;25.27;36.22;95043.94;4904347;28;20039;-67
2022/12/01 08:29:35;;;;;;;0.88;0.30;;;;;;;25.20;36.21;95056.25;4931826;28;20388;-63
2022/12/01 08:32:01;;;;;;;0.45;0.20;;;;;;;24.90;36.81;95072.03;4893206;28;20043;-61
2022/12/01 08:34:26;;;;;;;0.95;0.30;;;;;;;24.91;36.78;95072.78;4912795;29;20533;-62
2022/12/01 08:36:52;;;;;;;0.93;0.30;;;;;;;24.91;36.84;95062.56;4895718;29;20040;-61
2022/12/01 08:39:17;;;;;;;0.80;0.30;;;;;;;24.84;36.61;95052.25;4926142;29;20419;-62
2022/12/01 08:41:43;;;;;;;0.70;0.20;;;;;;;24.68;36.87;95055.22;4897311;28;20448;-64
2022/12/01 08:44:09;;;;;;;0.63;0.30;;;;;;;24.67;37.28;95059.19;4912592;29;20030;-63
2022/12/01 08:46:35;;;;;;;0.65;0.20;;;;;;;23.57;36.75;94895.31;4931257;28;20031;-62
2022/12/01 08:49:04;;;;;;;0.82;0.40;;;;;;;24.13;37.07;94984.16;4923633;28;20044;-63
2022/12/01 08:51:29;;;;;;;0.75;0.30;;;;;;;24.69;37.22;95055.94;4924603;29;20044;-61
2022/12/01 08:53:56;;;;;;;0.50;0.30;;;;;;;24.50;37.20;95060.69;4908407;29;20481;-62
2022/12/01 08:56:29;;;;;;;1.38;0.30;;;;;;;24.31;37.69;95048.94;4932724;29;20020;-63
2022/12/01 08:58:55;;;;;;;1.13;0.50;;;;;;;24.18;37.75;95046.13;4918919;29;20028;-61
2022/12/01 09:01:21;;;;;;;1.02;0.40;;;;;;;24.42;37.34;95054.31;4925410;28;20117;-62
2022/12/01 09:03:46;;;;;;;1.00;0.30;;;;;;;24.46;37.64;95060.22;4910228;29;20074;-62
2022/12/01 09:06:19;;;;;;;0.93;0.30;;;;;;;24.14;37.80;95062.06;4902351;29;20075;-62
2022/12/01 09:08:44;;;;;;;1.48;0.60;;;;;;;24.15;38.16;95047.16;4907401;28;20044;-61
2022/12/01 09:11:13;;;;;;;0.88;0.30;;;;;;;24.21;37.79;95055.28;4904804;29;20058;-62
2022/12/01 09:13:39;;;;;;;1.60;0.50;;;;;;;24.12;38.24;95053.63;4912925;29;20043;-62
2022/12/01 09:16:06;;;;;;;1.10;0.40;;;;;;;24.25;37.96;95048.28;4930885;29;20406;-62
2022/12/01 09:18:32;;;;;;;1.05;0.40;;;;;;;24.03;38.12;95043.06;4924721;29;20491;-63
2022/12/01 09:20:58;;;;;;;1.00;0.40;;;;;;;24.02;38.32;95041.59;4911458;29;20051;-65
2022/12/01 09:23:23;;;;;;;1.85;0.50;;;;;;;24.03;38.37;95040.34;4937973;29;20091;-61
2022/12/01 09:25:49;;;;;;;1.30;0.40;;;;;;;23.95;38.24;95042.16;4899066;29;20526;-61
2022/12/01 09:28:16;;;;;;;1.50;0.43;;;;;;;23.89;38.29;95043.47;4902482;29;20052;-61
2022/12/01 09:30:42;;;;;;;1.10;0.50;;;;;;;24.00;38.09;95035.91;4944493;28;20043;-62
2022/12/01 09:33:07;;;;;;;1.52;0.55;;;;;;;24.01;38.05;95042.84;4902402;29;20082;-61
2022/12/01 09:35:33;;;;;;;0.98;0.38;;;;;;;23.84;38.60;95043.53;4910647;28;20113;-61
2022/12/01 09:37:58;;;;;;;1.50;0.47;;;;;;;22.61;38.18;94854.91;4924134;28;20121;-62
2022/12/01 09:40:28;;;;;;;1.65;0.70;;;;;;;23.69;38.28;95013.19;4890053;28;20051;-61
2022/12/01 09:42:54;;;;;;;;;;;;;;;23.92;38.32;95029.56;4896188;29;20043;-61
2022/12/01 09:45:25;;;;;;;1.13;0.40;;;;;;;23.57;38.02;94981.81;4938326;28;19926;-61
2022/12/01 09:47:51;;;;;;;1.48;0.50;;;;;;;23.93;38.36;95025.59;4927901;28;20496;-62
2022/12/01 09:50:22;;;;;;;1.45;0.60;;;;;;;23.88;38.62;95025.63;4930748;28;20051;-61
2022/12/01 09:52:52;;;;;;;2.45;0.50;;;;;;;23.87;38.69;95030.34;4936872;28;20046;-62
2022/12/01 09:55:19;;;;;;;1.53;0.53;;;;;;;23.68;38.47;94998.09;4909083;29;20085;-60
2022/12/01 09:57:48;;;;;;;0.98;0.40;;;;;;;23.31;38.36;94929.06;4929043;29;21352;-62
2022/12/01 10:00:19;;;;;;;1.30;0.50;;;;;;;23.81;38.62;95017.28;4911172;29;20070;-62
2022/12/01 10:02:55;;;;;;;1.08;0.40;;;;;;;23.82;38.42;95007.84;4914035;29;20074;-62
2022/12/01 10:05:22;;;;;;;1.20;0.47;;;;;;;23.82;38.81;95007.84;4942388;29;20035;-63
2022/12/01 10:07:58;;;;;;;1.17;0.40;;;;;;;23.14;38.60;94940.13;4943585;29;20074;-62
2022/12/01 10:10:39;;;;;;;1.42;0.60;;;;;;;23.61;38.98;94998.63;4929457;28;20055;-63
2022/12/01 10:13:21;;;;;;;1.60;0.60;;;;;;;23.43;39.52;95005.47;4931760;29;20056;-61
2022/12/01 10:15:53;;;;;;;2.38;0.70;;;;;;;23.57;38.89;95003.59;4893220;29;20048;-61
2022/12/01 10:18:47;;;;;;;1.90;0.45;;;;;;;23.52;39.21;95026.22;4949027;28;20047;-62
2022/12/01 10:21:25;;;;;;;1.13;0.50;;;;;;;23.50;38.74;95009.66;4924852;28;20050;-60
2022/12/01 10:24:15;;;;;;;1.30;0.65;;;;;;;23.34;39.50;95001.63;4942763;29;20843;-63
2022/12/01 10:27:05;;;;;;;1.23;0.43;;;;;;;22.71;39.44;94919.41;4919249;29;20044;-64
2022/12/01 10:29:45;;;;;;;1.42;0.57;;;;;;;22.95;39.41;94966.50;4930843;28;20046;-63
2022/12/01 10:32:25;;;;;;;1.88;0.60;;;;;;;23.34;39.21;94991.44;4925714;29;20023;-62
2022/12/01 10:34:50;;;;;;;1.27;0.50;;;;;;;23.23;39.47;95024.25;4926115;29;20040;-62
2022/12/01 10:37:19;;;;;;;1.23;0.52;;;;;;;23.31;39.47;95000.63;4930896;28;20338;-62
2022/12/01 10:39:46;;;;;;;1.10;0.50;;;;;;;23.10;39.43;94983.22;4939559;29;20134;-62
2022/12/01 10:42:56;;;;;;;1.40;0.52;;;;;;;22.31;39.38;94875.91;4926405;28;20046;-63
2022/12/01 10:45:26;;;;;;;1.27;0.57;;;;;;;22.13;39.16;94816.66;4955843;28;20051;-65
2022/12/01 10:48:07;;;;;;;2.00;0.57;;;;;;;23.26;39.46;95001.44;4916005;28;20054;-60
2022/12/01 10:50:33;;;;;;;2.03;0.70;;;;;;;23.12;39.60;94994.38;4965504;28;20159;-62
2022/12/01 10:52:58;;;;;;;1.88;0.50;;;;;;;23.03;39.51;94994.69;4934281;28;20034;-63
2022/12/01 10:55:27;;;;;;;1.27;0.50;;;;;;;22.83;39.75;94979.97;4908987;29;20052;-63
2022/12/01 10:57:59;;;;;;;1.30;0.50;;;;;;;22.97;39.95;94991.28;4944431;28;20078;-62
2022/12/01 11:00:35;;;;;;;1.30;0.50;;;;;;;22.89;39.66;94973.22;4931668;28;20049;-61
2022/12/01 11:03:01;;;;;;;1.35;0.55;;;;;;;22.92;39.70;95021.97;4912439;29;20126;-60
2022/12/01 11:05:30;;;;;;;0.98;0.60;;;;;;;22.88;39.74;95017.31;4897105;29;20158;-63
2022/12/01 11:07:56;;;;;;;1.45;0.60;;;;;;;22.89;39.95;94990.28;4926417;28;20027;-64
2022/12/01 11:10:26;;;;;;;0.77;0.40;;;;;;;23.02;39.79;94993.22;4899647;29;20439;-64
2022/12/01 11:12:56;;;;;;;0.82;0.40;;;;;;;21.99;39.66;94866.72;4923237;28;20125;-61
2022/12/01 11:15:27;;;;;;;1.67;0.60;;;;;;;22.71;39.78;94973.13;4918328;28;20047;-63
2022/12/01 11:17:58;;;;;;;1.95;0.65;;;;;;;22.88;40.04;94987.34;4900235;29;20481;-62
2022/12/01 11:20:29;;;;;;;1.42;0.65;;;;;;;22.11;39.72;94889.88;4927215;29;20224;-62
2022/12/01 11:23:25;;;;;;;1.58;0.55;;;;;;;22.97;39.69;94985.81;4949837;28;20055;-61
2022/12/01 11:26:04;;;;;;;1.00;0.50;;;;;;;22.82;39.68;94973.03;4949576;28;20077;-62
2022/12/01 11:28:30;;;;;;;1.08;0.50;;;;;;;22.62;39.92;94948.94;4947298;28;20051;-60
2022/12/01 11:30:57;;;;;;;2.05;0.50;;;;;;;22.76;40.13;94999.56;4928652;29;20042;-61
2022/12/01 11:33:22;;;;;;;1.10;0.50;;;;;;;22.90;39.63;94983.63;4908278;28;20101;-61
2022/12/01 11:35:48;;;;;;;1.33;0.68;;;;;;;23.01;39.35;94972.66;4916231;29;20039;-61
2022/12/01 11:38:21;;;;;;;1.30;0.52;;;;;;;23.10;39.26;94988.69;4933426;29;20031;-61
2022/12/01 11:40:49;;;;;;;1.40;0.70;;;;;;;23.15;39.19;94985.19;4941685;29;20024;-61
2022/12/01 11:43:34;;;;;;;1.13;0.55;;;;;;;22.41;39.16;94879.81;4921547;28;20047;-61
2022/12/01 11:46:04;;;;;;;1.30;0.60;;;;;;;23.05;39.05;95008.53;4928564;28;20043;-62
2022/12/01 11:48:31;;;;;;;1.25;0.50;;;;;;;23.05;39.33;94958.78;4919155;29;20055;-62